Friday, October 19, 2018, 4:44 AM GMT
Back to Local

CYWA, Petawawa, Ont.

Location: , , Canada Lat: 45.95
Local Time: 4:44 AM GMT ( 4:44 GMT) Lon: -77.317
Time Zone: GMT Elev: 426 ft

Show me the last for .
Show Coded

Time T Td Feel RH Dir Speed Gust Alt SLP Vis Weather Sky Remarks
2018-10-19 04:00 36 28 32 74 160° 5 - 30.08 30.10 9 CLR None
2018-10-19 03:00 37 28 35 69 160° 3 - 30.11 30.13 9 SCT035 OVC065 None
2018-10-19 02:00 37 27 - 64 170° 2 - 30.13 30.15 9 BKN037 OVC070 None
2018-10-19 01:00 39 27 37 60 190° 3 - 30.12 30.15 9 OVC074 None
2018-10-19 00:00 37 25 35 60 180° 3 - 30.13 30.15 9 FEW074 None
2018-10-18 23:00 39 23 35 51 230° 6 - 30.16 30.18 9 FEW069 None
2018-10-18 22:00 41 21 39 44 230° 3 - 30.18 30.20 9 OVC069 None
2018-10-18 21:00 41 16 38 35 280° 5 - 30.21 30.23 9 OVC071 None
2018-10-18 20:00 41 16 36 35 260° 8 - 30.23 30.25 9 OVC067 None
2018-10-18 19:00 41 18 36 38 290° 7 - 30.26 30.28 9 FEW056 FEW087 SCT096 None
2018-10-18 18:00 37 16 29 40 280° 13 - 30.28 30.30 9 FEW053 FEW094 None
2018-10-18 17:00 36 14 25 40 280° 10 17 30.32 30.34 9 SCT048 None
2018-10-18 16:00 34 14 22 43 310° 13 20 30.34 30.36 9 SCT043 SCT075 None
2018-10-18 15:00 32 14 22 46 320° 14 - 30.36 30.38 9 FEW040 None
2018-10-18 14:00 30 16 22 54 300° 9 - 30.36 30.38 9 CLR None
2018-10-18 13:00 30 18 21 58 280° 10 - 30.35 30.37 9 CLR None
2018-10-18 12:00 27 18 18 68 280° 8 - 30.33 30.35 9 CLR None
2018-10-18 11:00 28 18 23 63 280° 5 - 30.31 30.33 9 FEW040 None
2018-10-18 10:00 28 19 21 68 290° 7 - 30.29 30.31 9 FEW045 None
2018-10-18 09:00 28 18 22 63 290° 6 - 30.27 30.29 9 FEW036 None
2018-10-18 08:00 28 19 23 68 290° 5 - 30.25 30.27 9 FEW037 None
2018-10-18 07:24 30 18 21 58 310° 10 - 30.23 - 9 BKN039 None
2018-10-18 07:09 32 18 24 54 310° 10 - 30.22 - 9 -SN OVC039 None
2018-10-18 07:00 32 18 24 54 300° 10 - 30.22 30.24 9 BKN041 None
2018-10-18 06:00 32 16 24 50 300° 10 - 30.19 30.21 9 SCT044 None
2018-10-18 05:00 32 21 25 63 290° 8 - 30.16 30.18 9 OVC040 None

Support USWX by starting your Amazon purchase here.